This is the latest recevied weather packets stored in our database for station/object K5NWZ. If no packets are shown the sender has not sent any weather packets the latest 10 day(s).
| Time | Temp. | Humidity | Pressure | Rain* | Wind** | Luminosity | Snow |
|---|---|---|---|---|---|---|---|
| 1778102097 | 5° C | 62% | 1028.4 hPa | 0 mm | - | 225 W/m² | - |
| 1778101789 | 5° C | 65% | 1028.2 hPa | 1.27 mm | - | 752 W/m² | - |
| 1778101485 | 5.56° C | 61% | 1028.1 hPa | 1.27 mm | - | 810 W/m² | - |
| 1778101183 | 5° C | 63% | 1028.4 hPa | 1.78 mm | - | 809 W/m² | - |
| 1778100879 | 5° C | 62% | 1028.4 hPa | 1.78 mm | - | 859 W/m² | - |
| 1778100575 | 5° C | 62% | 1028.4 hPa | 1.27 mm | - | 735 W/m² | - |
| 1778100273 | 4.44° C | 64% | 1028.6 hPa | 3.05 mm | - | 225 W/m² | - |
| 1778099970 | 5.56° C | 60% | 1028.6 hPa | 3.05 mm | - | 267 W/m² | - |
| 1778099667 | 5° C | 66% | 1028.9 hPa | 3.05 mm | - | 966 W/m² | - |
| 1778099364 | 5° C | 62% | 1028.9 hPa | 3.05 mm | - | 273 W/m² | - |
| 1778099061 | 4.44° C | 63% | 1028.9 hPa | 3.05 mm | - | 987 W/m² | - |
| 1778098757 | 5° C | 67% | 1028.9 hPa | 3.05 mm | - | 298 W/m² | - |
| 1778098455 | 4.44° C | 66% | 1029 hPa | 3.05 mm | - | 514 W/m² | - |
| 1778098151 | 4.44° C | 64% | 1028.9 hPa | 4.83 mm | - | 819 W/m² | - |
| 1778097847 | 5° C | 64% | 1029.1 hPa | 4.32 mm | - | 976 W/m² | - |
| 1778097544 | 3.89° C | 70% | 1029.3 hPa | 3.05 mm | - | 804 W/m² | - |
| 1778097242 | 3.89° C | 66% | 1029 hPa | 1.78 mm | - | 407 W/m² | - |
| 1778096938 | 4.44° C | 62% | 1029.3 hPa | 1.78 mm | - | 431 W/m² | - |
| 1778096635 | 4.44° C | 66% | 1029.1 hPa | 3.05 mm | - | 452 W/m² | - |
| 1778096332 | 4.44° C | 62% | 1029.3 hPa | 3.05 mm | - | 370 W/m² | - |
| 1778096029 | 3.89° C | 68% | 1029.1 hPa | 4.83 mm | - | 475 W/m² | - |
| 1778095725 | 3.89° C | 67% | 1029.4 hPa | 4.32 mm | - | 405 W/m² | - |
| 1778095422 | 3.89° C | 68% | 1029.3 hPa | 3.05 mm | - | 372 W/m² | - |
| 1778095119 | 3.33° C | 65% | 1029.4 hPa | 1.78 mm | - | 359 W/m² | - |
| 1778094816 | 3.33° C | 66% | 1029.4 hPa | 1.27 mm | - | 504 W/m² | - |
* Rain latest hour (hover to see other rain measurements)
** Current wind speed in m/s (hover to see current wind gust speed)